Airfield :
LOGIN :

Register | Disclaimer

   EN    FR    IT 

 










Legend :    VFR   Marginal VFR   IFR   Intensive IFR   Very Intensive IFR
Visi :
Ceiling :
>= 8 km
>= 3000ft
5 to 8 km
1000 to 3000 ft
1500m to 5 km
500 to 1000 ft
800 to 1500m
200 to 500 ft
< 800m
< 200 ft
Symbols :   Thunderstorms  Fog  Heavy snow  Heavy precipitations  Wind > 20 kt
SIGMETs :     Misc.  Thunderstorms  Icing  Turbulence  Mountain Waves  Volcanic Ashes






- Airport Elevation : 348 ft
- IATA code : LDV


LFRJ - Landivisiau

CURRENT METAR :
  • 100930Z AUTO 20020KT 9999 BKN011 BKN016 BKN060 10/09 Q1019 TEMPO 20025G35KT 3000 RADZ OVC005

EXPIRED METARs :
  • 100900Z AUTO 20020G33KT 9999 -DZ BKN011 BKN016 BKN021 10/09 Q1019 TEMPO 3000 RADZ OVC005
  • 100830Z AUTO 20019KT 9999 BKN012 BKN022 BKN042 10/08 Q1020 TEMPO 20025G35KT 3000 RADZ OVC005
  • 100800Z AUTO 20019KT 9999 -DZ BKN016 BKN022 OVC090 10/08 Q1020 BECMG 20020G35KT RA OVC008
  • 100730Z AUTO 21017KT 9999 BKN017 BKN025 BKN074 10/08 Q1021 BECMG 20020G35KT RA OVC008
  • 100700Z AUTO 20013KT 9999 BKN019 BKN026 BKN066 09/08 Q1021 BECMG 20020G35KT RA OVC008

TAF TAF LFRJ
Valid from the 10 at 09:00 until the 10 at 18:00 UTC


100800Z 1009/1018 20015G25KT 9999 BKN016
BECMG 1009/1011 7000 RA OVC012
TEMPO 1010/1016 20025G35KT 3000 RADZ OVC005
TEMPO 1016/1018 20025G38KT 2000 RADZ OVC003



MET'MAP, your aeronautical weather chart ! - Copyright ORBIFLY December 2007 - Disclaimer

ORBIFLY MET'MAP TEAM :

Programming & Development : Alexandra Zaïnal
Concept & original design : Baudouin d'Aumeries
Assistance for programming : Marc-Olivier Méhu
Technical & hardware support : Manuel Goepfert

Contact : metmap@orbifly.com




SOURCES & CREDITS :

   NOAA